sensor_id;sensor_type;location;lat;lon;timestamp;P1;durP1;ratioP1;P2;durP2;ratioP2
18716;SDS011;9487;50.892;6.906;2023-07-20T00:02:10;6.27;;;3.77;;
18716;SDS011;9487;50.892;6.906;2023-07-20T00:04:37;5.77;;;3.77;;
18716;SDS011;9487;50.892;6.906;2023-07-20T00:07:07;4.63;;;3.30;;
18716;SDS011;9487;50.892;6.906;2023-07-20T00:09:35;4.33;;;3.20;;
18716;SDS011;9487;50.892;6.906;2023-07-20T00:12:02;5.47;;;3.30;;
18716;SDS011;9487;50.892;6.906;2023-07-20T00:14:30;4.83;;;3.50;;
18716;SDS011;9487;50.892;6.906;2023-07-20T00:16:58;4.00;;;3.40;;
18716;SDS011;9487;50.892;6.906;2023-07-20T00:19:25;4.47;;;3.47;;
18716;SDS011;9487;50.892;6.906;2023-07-20T00:21:53;4.20;;;3.70;;
18716;SDS011;9487;50.892;6.906;2023-07-20T00:24:20;10.60;;;4.23;;
18716;SDS011;9487;50.892;6.906;2023-07-20T00:26:51;6.47;;;3.87;;
18716;SDS011;9487;50.892;6.906;2023-07-20T00:29:18;4.57;;;3.83;;
18716;SDS011;9487;50.892;6.906;2023-07-20T00:31:47;6.20;;;4.13;;
18716;SDS011;9487;50.892;6.906;2023-07-20T00:34:14;6.43;;;3.50;;
18716;SDS011;9487;50.892;6.906;2023-07-20T00:36:41;5.37;;;3.77;;
18716;SDS011;9487;50.892;6.906;2023-07-20T00:39:08;7.10;;;3.77;;
18716;SDS011;9487;50.892;6.906;2023-07-20T00:41:35;5.30;;;3.63;;
18716;SDS011;9487;50.892;6.906;2023-07-20T00:44:04;7.07;;;3.53;;
18716;SDS011;9487;50.892;6.906;2023-07-20T00:46:31;3.90;;;3.50;;
18716;SDS011;9487;50.892;6.906;2023-07-20T00:48:59;5.30;;;3.60;;
18716;SDS011;9487;50.892;6.906;2023-07-20T00:51:27;3.80;;;3.40;;
18716;SDS011;9487;50.892;6.906;2023-07-20T00:53:56;6.87;;;3.60;;
18716;SDS011;9487;50.892;6.906;2023-07-20T00:56:23;3.77;;;3.27;;
18716;SDS011;9487;50.892;6.906;2023-07-20T00:58:51;4.97;;;3.10;;
18716;SDS011;9487;50.892;6.906;2023-07-20T01:01:21;4.90;;;3.17;;
18716;SDS011;9487;50.892;6.906;2023-07-20T01:03:48;4.80;;;2.97;;
18716;SDS011;9487;50.892;6.906;2023-07-20T01:06:18;4.60;;;3.60;;
18716;SDS011;9487;50.892;6.906;2023-07-20T01:08:58;3.47;;;3.10;;
18716;SDS011;9487;50.892;6.906;2023-07-20T01:11:32;5.97;;;3.30;;
18716;SDS011;9487;50.892;6.906;2023-07-20T01:14:04;6.00;;;3.33;;
18716;SDS011;9487;50.892;6.906;2023-07-20T01:16:33;4.70;;;3.20;;
18716;SDS011;9487;50.892;6.906;2023-07-20T01:19:00;4.27;;;3.10;;
18716;SDS011;9487;50.892;6.906;2023-07-20T01:21:31;3.37;;;3.03;;
18716;SDS011;9487;50.892;6.906;2023-07-20T01:24:12;3.97;;;3.00;;
18716;SDS011;9487;50.892;6.906;2023-07-20T01:27:20;5.80;;;3.50;;
18716;SDS011;9487;50.892;6.906;2023-07-20T01:30:13;4.70;;;3.30;;
18716;SDS011;9487;50.892;6.906;2023-07-20T01:32:51;4.23;;;3.40;;
18716;SDS011;9487;50.892;6.906;2023-07-20T01:35:21;4.87;;;3.40;;
18716;SDS011;9487;50.892;6.906;2023-07-20T01:37:52;4.93;;;3.60;;
18716;SDS011;9487;50.892;6.906;2023-07-20T01:40:20;5.73;;;4.27;;
18716;SDS011;9487;50.892;6.906;2023-07-20T01:42:51;7.10;;;4.00;;
18716;SDS011;9487;50.892;6.906;2023-07-20T01:45:19;6.90;;;3.47;;
18716;SDS011;9487;50.892;6.906;2023-07-20T01:47:46;5.80;;;4.03;;
18716;SDS011;9487;50.892;6.906;2023-07-20T01:50:15;6.30;;;4.03;;
18716;SDS011;9487;50.892;6.906;2023-07-20T01:52:42;4.07;;;3.63;;
18716;SDS011;9487;50.892;6.906;2023-07-20T01:55:09;6.70;;;4.23;;
18716;SDS011;9487;50.892;6.906;2023-07-20T01:57:37;4.87;;;4.10;;
18716;SDS011;9487;50.892;6.906;2023-07-20T02:00:05;7.87;;;4.97;;
18716;SDS011;9487;50.892;6.906;2023-07-20T02:02:34;5.17;;;3.67;;
18716;SDS011;9487;50.892;6.906;2023-07-20T02:05:02;7.20;;;3.83;;
18716;SDS011;9487;50.892;6.906;2023-07-20T02:07:32;5.00;;;3.90;;
18716;SDS011;9487;50.892;6.906;2023-07-20T02:09:59;5.93;;;4.27;;
18716;SDS011;9487;50.892;6.906;2023-07-20T02:12:26;4.30;;;3.67;;
18716;SDS011;9487;50.892;6.906;2023-07-20T02:14:53;5.73;;;3.87;;
18716;SDS011;9487;50.892;6.906;2023-07-20T02:17:20;4.87;;;3.70;;
18716;SDS011;9487;50.892;6.906;2023-07-20T02:19:50;5.10;;;3.67;;
18716;SDS011;9487;50.892;6.906;2023-07-20T02:22:18;5.10;;;3.80;;
18716;SDS011;9487;50.892;6.906;2023-07-20T02:24:48;5.87;;;4.23;;
18716;SDS011;9487;50.892;6.906;2023-07-20T02:27:17;4.67;;;3.77;;
18716;SDS011;9487;50.892;6.906;2023-07-20T02:29:44;6.80;;;4.20;;
18716;SDS011;9487;50.892;6.906;2023-07-20T02:32:12;4.80;;;3.83;;
18716;SDS011;9487;50.892;6.906;2023-07-20T02:34:39;4.87;;;4.23;;
18716;SDS011;9487;50.892;6.906;2023-07-20T02:37:06;13.03;;;4.23;;
18716;SDS011;9487;50.892;6.906;2023-07-20T02:39:33;7.97;;;4.43;;
18716;SDS011;9487;50.892;6.906;2023-07-20T02:42:01;6.30;;;4.23;;
18716;SDS011;9487;50.892;6.906;2023-07-20T02:44:28;5.30;;;4.47;;
18716;SDS011;9487;50.892;6.906;2023-07-20T02:46:56;5.57;;;4.50;;
18716;SDS011;9487;50.892;6.906;2023-07-20T02:49:24;6.23;;;4.37;;
18716;SDS011;9487;50.892;6.906;2023-07-20T02:51:51;5.23;;;4.00;;
18716;SDS011;9487;50.892;6.906;2023-07-20T02:54:21;6.83;;;4.00;;
18716;SDS011;9487;50.892;6.906;2023-07-20T02:56:48;6.10;;;4.10;;
18716;SDS011;9487;50.892;6.906;2023-07-20T02:59:17;5.23;;;3.80;;
18716;SDS011;9487;50.892;6.906;2023-07-20T03:01:47;4.07;;;3.60;;
18716;SDS011;9487;50.892;6.906;2023-07-20T03:04:15;6.63;;;4.23;;
18716;SDS011;9487;50.892;6.906;2023-07-20T03:06:42;4.00;;;3.60;;
18716;SDS011;9487;50.892;6.906;2023-07-20T03:09:09;4.47;;;4.00;;
18716;SDS011;9487;50.892;6.906;2023-07-20T03:11:36;7.17;;;3.77;;
18716;SDS011;9487;50.892;6.906;2023-07-20T03:14:03;4.93;;;3.70;;
18716;SDS011;9487;50.892;6.906;2023-07-20T03:16:32;4.97;;;3.60;;
18716;SDS011;9487;50.892;6.906;2023-07-20T03:19:01;5.47;;;3.50;;
18716;SDS011;9487;50.892;6.906;2023-07-20T03:21:29;6.87;;;3.90;;
18716;SDS011;9487;50.892;6.906;2023-07-20T03:23:58;4.47;;;3.80;;
18716;SDS011;9487;50.892;6.906;2023-07-20T03:26:25;5.63;;;3.77;;
18716;SDS011;9487;50.892;6.906;2023-07-20T03:28:52;5.40;;;3.53;;
18716;SDS011;9487;50.892;6.906;2023-07-20T03:31:21;4.93;;;3.70;;
18716;SDS011;9487;50.892;6.906;2023-07-20T03:33:52;3.87;;;3.50;;
18716;SDS011;9487;50.892;6.906;2023-07-20T03:36:19;5.63;;;3.40;;
18716;SDS011;9487;50.892;6.906;2023-07-20T03:38:47;4.63;;;3.30;;
18716;SDS011;9487;50.892;6.906;2023-07-20T03:41:15;5.20;;;3.50;;
18716;SDS011;9487;50.892;6.906;2023-07-20T03:43:42;6.00;;;3.33;;
18716;SDS011;9487;50.892;6.906;2023-07-20T03:46:08;5.87;;;3.40;;
18716;SDS011;9487;50.892;6.906;2023-07-20T03:48:36;7.20;;;4.13;;
18716;SDS011;9487;50.892;6.906;2023-07-20T03:51:04;5.37;;;3.57;;
18716;SDS011;9487;50.892;6.906;2023-07-20T03:53:33;4.97;;;3.70;;
18716;SDS011;9487;50.892;6.906;2023-07-20T03:58:59;5.80;;;3.77;;
18716;SDS011;9487;50.892;6.906;2023-07-20T04:01:26;6.03;;;4.23;;
18716;SDS011;9487;50.892;6.906;2023-07-20T04:03:55;5.50;;;3.50;;
18716;SDS011;9487;50.892;6.906;2023-07-20T04:06:23;4.33;;;3.70;;
18716;SDS011;9487;50.892;6.906;2023-07-20T04:08:51;5.27;;;3.80;;
18716;SDS011;9487;50.892;6.906;2023-07-20T04:11:18;5.33;;;4.00;;
18716;SDS011;9487;50.892;6.906;2023-07-20T04:13:45;4.10;;;3.17;;
18716;SDS011;9487;50.892;6.906;2023-07-20T04:16:12;5.53;;;3.43;;
18716;SDS011;9487;50.892;6.906;2023-07-20T04:18:39;6.90;;;3.90;;
18716;SDS011;9487;50.892;6.906;2023-07-20T04:21:07;4.00;;;3.47;;
18716;SDS011;9487;50.892;6.906;2023-07-20T04:23:36;5.10;;;3.53;;
18716;SDS011;9487;50.892;6.906;2023-07-20T04:26:02;5.77;;;3.67;;
18716;SDS011;9487;50.892;6.906;2023-07-20T04:28:31;7.07;;;3.77;;
18716;SDS011;9487;50.892;6.906;2023-07-20T04:31:09;6.40;;;3.90;;
18716;SDS011;9487;50.892;6.906;2023-07-20T04:33:36;5.97;;;4.13;;
18716;SDS011;9487;50.892;6.906;2023-07-20T04:36:03;8.93;;;4.20;;
18716;SDS011;9487;50.892;6.906;2023-07-20T04:38:31;7.73;;;4.47;;
18716;SDS011;9487;50.892;6.906;2023-07-20T04:40:59;7.13;;;4.30;;
18716;SDS011;9487;50.892;6.906;2023-07-20T04:43:29;4.77;;;4.20;;
18716;SDS011;9487;50.892;6.906;2023-07-20T04:45:56;6.47;;;4.27;;
18716;SDS011;9487;50.892;6.906;2023-07-20T04:48:24;7.43;;;4.17;;
18716;SDS011;9487;50.892;6.906;2023-07-20T04:50:51;6.40;;;4.93;;
18716;SDS011;9487;50.892;6.906;2023-07-20T04:53:17;7.00;;;5.30;;
18716;SDS011;9487;50.892;6.906;2023-07-20T04:55:47;6.73;;;4.60;;
18716;SDS011;9487;50.892;6.906;2023-07-20T04:58:18;5.43;;;4.23;;
18716;SDS011;9487;50.892;6.906;2023-07-20T05:00:47;8.13;;;4.10;;
18716;SDS011;9487;50.892;6.906;2023-07-20T05:03:14;5.47;;;4.20;;
18716;SDS011;9487;50.892;6.906;2023-07-20T05:05:41;8.27;;;4.50;;
18716;SDS011;9487;50.892;6.906;2023-07-20T05:08:09;8.80;;;4.70;;
18716;SDS011;9487;50.892;6.906;2023-07-20T05:10:37;7.23;;;4.40;;
18716;SDS011;9487;50.892;6.906;2023-07-20T05:13:04;5.90;;;4.47;;
18716;SDS011;9487;50.892;6.906;2023-07-20T05:15:33;6.83;;;4.93;;
18716;SDS011;9487;50.892;6.906;2023-07-20T05:18:00;7.13;;;4.73;;
18716;SDS011;9487;50.892;6.906;2023-07-20T05:20:27;7.83;;;4.30;;
18716;SDS011;9487;50.892;6.906;2023-07-20T05:22:54;8.73;;;4.90;;
18716;SDS011;9487;50.892;6.906;2023-07-20T05:25:21;5.63;;;4.50;;
18716;SDS011;9487;50.892;6.906;2023-07-20T05:27:48;7.30;;;4.90;;
18716;SDS011;9487;50.892;6.906;2023-07-20T05:30:16;7.03;;;4.47;;
18716;SDS011;9487;50.892;6.906;2023-07-20T05:32:44;7.57;;;4.90;;
18716;SDS011;9487;50.892;6.906;2023-07-20T05:35:16;7.13;;;4.83;;
18716;SDS011;9487;50.892;6.906;2023-07-20T05:37:43;8.60;;;5.47;;
18716;SDS011;9487;50.892;6.906;2023-07-20T05:40:10;10.47;;;5.83;;
18716;SDS011;9487;50.892;6.906;2023-07-20T05:42:38;8.90;;;6.47;;
18716;SDS011;9487;50.892;6.906;2023-07-20T05:45:05;8.00;;;6.57;;
18716;SDS011;9487;50.892;6.906;2023-07-20T05:47:33;8.07;;;5.87;;
18716;SDS011;9487;50.892;6.906;2023-07-20T05:50:01;9.97;;;5.93;;
18716;SDS011;9487;50.892;6.906;2023-07-20T05:52:28;9.13;;;6.00;;
18716;SDS011;9487;50.892;6.906;2023-07-20T05:54:55;8.73;;;5.73;;
18716;SDS011;9487;50.892;6.906;2023-07-20T05:57:22;10.63;;;6.80;;
18716;SDS011;9487;50.892;6.906;2023-07-20T05:59:52;8.60;;;5.87;;
18716;SDS011;9487;50.892;6.906;2023-07-20T06:02:19;10.60;;;7.07;;
18716;SDS011;9487;50.892;6.906;2023-07-20T06:04:45;7.87;;;6.50;;
18716;SDS011;9487;50.892;6.906;2023-07-20T06:07:15;7.80;;;6.13;;
18716;SDS011;9487;50.892;6.906;2023-07-20T06:09:42;9.53;;;6.63;;
18716;SDS011;9487;50.892;6.906;2023-07-20T06:12:09;8.40;;;6.20;;
18716;SDS011;9487;50.892;6.906;2023-07-20T06:14:36;6.83;;;5.77;;
18716;SDS011;9487;50.892;6.906;2023-07-20T06:17:03;9.17;;;5.47;;
18716;SDS011;9487;50.892;6.906;2023-07-20T06:19:31;9.03;;;7.57;;
18716;SDS011;9487;50.892;6.906;2023-07-20T06:21:58;10.17;;;6.13;;
18716;SDS011;9487;50.892;6.906;2023-07-20T06:24:26;12.40;;;7.57;;
18716;SDS011;9487;50.892;6.906;2023-07-20T06:26:53;9.87;;;6.70;;
18716;SDS011;9487;50.892;6.906;2023-07-20T06:29:20;8.87;;;7.17;;
18716;SDS011;9487;50.892;6.906;2023-07-20T06:31:47;8.13;;;6.73;;
18716;SDS011;9487;50.892;6.906;2023-07-20T06:34:14;8.70;;;7.77;;
18716;SDS011;9487;50.892;6.906;2023-07-20T06:36:42;11.10;;;8.70;;
18716;SDS011;9487;50.892;6.906;2023-07-20T06:39:09;12.33;;;9.13;;
18716;SDS011;9487;50.892;6.906;2023-07-20T06:41:37;9.63;;;8.73;;
18716;SDS011;9487;50.892;6.906;2023-07-20T06:44:04;10.83;;;9.67;;
18716;SDS011;9487;50.892;6.906;2023-07-20T06:46:31;10.83;;;9.17;;
18716;SDS011;9487;50.892;6.906;2023-07-20T06:48:59;10.00;;;8.23;;
18716;SDS011;9487;50.892;6.906;2023-07-20T06:51:26;12.00;;;10.40;;
18716;SDS011;9487;50.892;6.906;2023-07-20T06:53:53;10.50;;;9.37;;
18716;SDS011;9487;50.892;6.906;2023-07-20T06:56:20;11.50;;;10.07;;
18716;SDS011;9487;50.892;6.906;2023-07-20T06:58:48;10.00;;;8.73;;
18716;SDS011;9487;50.892;6.906;2023-07-20T07:01:15;11.23;;;9.37;;
18716;SDS011;9487;50.892;6.906;2023-07-20T07:03:42;11.03;;;9.93;;
18716;SDS011;9487;50.892;6.906;2023-07-20T07:06:10;11.80;;;9.73;;
18716;SDS011;9487;50.892;6.906;2023-07-20T07:08:37;13.63;;;9.13;;
18716;SDS011;9487;50.892;6.906;2023-07-20T07:11:04;10.07;;;9.07;;
18716;SDS011;9487;50.892;6.906;2023-07-20T07:13:31;10.20;;;9.13;;
18716;SDS011;9487;50.892;6.906;2023-07-20T07:15:59;10.07;;;8.93;;
18716;SDS011;9487;50.892;6.906;2023-07-20T07:18:26;9.73;;;8.77;;
18716;SDS011;9487;50.892;6.906;2023-07-20T07:20:53;11.43;;;8.80;;
18716;SDS011;9487;50.892;6.906;2023-07-20T07:23:20;12.93;;;8.23;;
18716;SDS011;9487;50.892;6.906;2023-07-20T07:25:47;10.30;;;7.63;;
18716;SDS011;9487;50.892;6.906;2023-07-20T07:28:14;8.97;;;8.10;;
18716;SDS011;9487;50.892;6.906;2023-07-20T07:30:41;11.30;;;8.37;;
18716;SDS011;9487;50.892;6.906;2023-07-20T07:33:10;8.73;;;7.83;;
18716;SDS011;9487;50.892;6.906;2023-07-20T07:35:37;9.60;;;8.77;;
18716;SDS011;9487;50.892;6.906;2023-07-20T07:38:04;9.30;;;8.33;;
18716;SDS011;9487;50.892;6.906;2023-07-20T07:40:32;8.83;;;8.03;;
18716;SDS011;9487;50.892;6.906;2023-07-20T07:42:59;9.87;;;8.97;;
18716;SDS011;9487;50.892;6.906;2023-07-20T07:45:28;7.87;;;7.17;;
18716;SDS011;9487;50.892;6.906;2023-07-20T07:47:55;10.47;;;6.93;;
18716;SDS011;9487;50.892;6.906;2023-07-20T07:50:26;7.73;;;6.80;;
18716;SDS011;9487;50.892;6.906;2023-07-20T07:52:53;9.30;;;6.57;;
18716;SDS011;9487;50.892;6.906;2023-07-20T07:55:20;8.33;;;7.00;;
18716;SDS011;9487;50.892;6.906;2023-07-20T07:57:47;7.23;;;6.53;;
18716;SDS011;9487;50.892;6.906;2023-07-20T08:00:14;9.10;;;5.83;;
18716;SDS011;9487;50.892;6.906;2023-07-20T08:02:44;8.57;;;6.37;;
18716;SDS011;9487;50.892;6.906;2023-07-20T08:05:11;5.30;;;4.77;;
18716;SDS011;9487;50.892;6.906;2023-07-20T08:07:40;5.38;;;4.88;;
18716;SDS011;9487;50.892;6.906;2023-07-20T08:10:07;8.23;;;5.10;;
18716;SDS011;9487;50.892;6.906;2023-07-20T08:12:35;4.80;;;4.40;;
18716;SDS011;9487;50.892;6.906;2023-07-20T08:15:02;6.90;;;5.70;;
18716;SDS011;9487;50.892;6.906;2023-07-20T08:17:30;6.63;;;5.83;;
18716;SDS011;9487;50.892;6.906;2023-07-20T08:19:57;7.27;;;4.03;;
18716;SDS011;9487;50.892;6.906;2023-07-20T08:22:25;5.33;;;4.83;;
18716;SDS011;9487;50.892;6.906;2023-07-20T08:24:53;6.97;;;5.40;;
18716;SDS011;9487;50.892;6.906;2023-07-20T08:27:20;5.97;;;4.97;;
18716;SDS011;9487;50.892;6.906;2023-07-20T08:29:48;4.90;;;4.50;;
18716;SDS011;9487;50.892;6.906;2023-07-20T08:32:15;5.60;;;4.07;;
18716;SDS011;9487;50.892;6.906;2023-07-20T08:34:42;4.87;;;4.23;;
18716;SDS011;9487;50.892;6.906;2023-07-20T08:37:09;4.50;;;4.10;;
18716;SDS011;9487;50.892;6.906;2023-07-20T08:39:36;5.07;;;4.20;;
18716;SDS011;9487;50.892;6.906;2023-07-20T08:42:05;5.10;;;4.60;;
18716;SDS011;9487;50.892;6.906;2023-07-20T08:44:33;4.30;;;3.90;;
18716;SDS011;9487;50.892;6.906;2023-07-20T08:47:00;4.40;;;3.70;;
18716;SDS011;9487;50.892;6.906;2023-07-20T08:49:29;5.93;;;3.47;;
18716;SDS011;9487;50.892;6.906;2023-07-20T08:51:57;7.37;;;3.93;;
18716;SDS011;9487;50.892;6.906;2023-07-20T08:54:25;4.33;;;3.90;;
18716;SDS011;9487;50.892;6.906;2023-07-20T08:56:58;5.53;;;3.10;;
18716;SDS011;9487;50.892;6.906;2023-07-20T08:59:29;3.80;;;2.90;;
18716;SDS011;9487;50.892;6.906;2023-07-20T09:01:57;3.37;;;2.53;;
18716;SDS011;9487;50.892;6.906;2023-07-20T09:04:25;4.70;;;3.20;;
18716;SDS011;9487;50.892;6.906;2023-07-20T09:06:52;6.67;;;3.43;;
18716;SDS011;9487;50.892;6.906;2023-07-20T09:09:19;4.47;;;2.87;;
18716;SDS011;9487;50.892;6.906;2023-07-20T09:11:47;3.57;;;3.27;;
18716;SDS011;9487;50.892;6.906;2023-07-20T09:14:15;4.83;;;4.23;;
18716;SDS011;9487;50.892;6.906;2023-07-20T09:16:51;4.67;;;3.80;;
18716;SDS011;9487;50.892;6.906;2023-07-20T09:19:20;4.93;;;4.13;;
18716;SDS011;9487;50.892;6.906;2023-07-20T09:21:48;5.73;;;3.37;;
18716;SDS011;9487;50.892;6.906;2023-07-20T09:24:17;4.23;;;3.53;;
18716;SDS011;9487;50.892;6.906;2023-07-20T09:26:45;3.57;;;3.23;;
18716;SDS011;9487;50.892;6.906;2023-07-20T09:29:13;3.57;;;3.27;;
18716;SDS011;9487;50.892;6.906;2023-07-20T09:31:40;4.23;;;3.17;;
18716;SDS011;9487;50.892;6.906;2023-07-20T09:34:10;4.10;;;2.60;;
18716;SDS011;9487;50.892;6.906;2023-07-20T09:36:38;6.00;;;2.97;;
18716;SDS011;9487;50.892;6.906;2023-07-20T09:39:05;3.67;;;2.83;;
18716;SDS011;9487;50.892;6.906;2023-07-20T09:41:39;3.37;;;2.50;;
18716;SDS011;9487;50.892;6.906;2023-07-20T09:44:07;4.10;;;2.23;;
18716;SDS011;9487;50.892;6.906;2023-07-20T09:46:43;3.70;;;2.87;;
18716;SDS011;9487;50.892;6.906;2023-07-20T09:49:12;4.30;;;2.30;;
18716;SDS011;9487;50.892;6.906;2023-07-20T09:51:39;2.50;;;2.30;;
18716;SDS011;9487;50.892;6.906;2023-07-20T09:54:07;3.57;;;2.20;;
18716;SDS011;9487;50.892;6.906;2023-07-20T09:56:34;2.37;;;2.00;;
18716;SDS011;9487;50.892;6.906;2023-07-20T09:59:02;3.10;;;2.10;;
18716;SDS011;9487;50.892;6.906;2023-07-20T10:01:29;3.53;;;2.33;;
18716;SDS011;9487;50.892;6.906;2023-07-20T10:04:02;3.47;;;2.40;;
18716;SDS011;9487;50.892;6.906;2023-07-20T10:06:32;2.90;;;2.20;;
18716;SDS011;9487;50.892;6.906;2023-07-20T10:09:02;3.17;;;2.63;;
18716;SDS011;9487;50.892;6.906;2023-07-20T10:11:31;4.63;;;3.57;;
18716;SDS011;9487;50.892;6.906;2023-07-20T10:14:02;3.70;;;2.50;;
18716;SDS011;9487;50.892;6.906;2023-07-20T10:16:34;2.50;;;2.20;;
18716;SDS011;9487;50.892;6.906;2023-07-20T10:19:03;3.20;;;2.33;;
18716;SDS011;9487;50.892;6.906;2023-07-20T10:21:35;3.23;;;2.93;;
18716;SDS011;9487;50.892;6.906;2023-07-20T10:24:06;2.60;;;2.13;;
18716;SDS011;9487;50.892;6.906;2023-07-20T10:26:34;2.57;;;2.37;;
18716;SDS011;9487;50.892;6.906;2023-07-20T10:29:01;2.53;;;2.03;;
18716;SDS011;9487;50.892;6.906;2023-07-20T10:31:28;3.03;;;1.93;;
18716;SDS011;9487;50.892;6.906;2023-07-20T10:33:56;2.97;;;2.33;;
18716;SDS011;9487;50.892;6.906;2023-07-20T10:36:24;2.83;;;2.23;;
18716;SDS011;9487;50.892;6.906;2023-07-20T10:38:56;2.60;;;2.30;;
18716;SDS011;9487;50.892;6.906;2023-07-20T10:41:27;3.10;;;2.20;;
18716;SDS011;9487;50.892;6.906;2023-07-20T10:44:00;3.83;;;2.30;;
18716;SDS011;9487;50.892;6.906;2023-07-20T10:46:35;3.17;;;2.40;;
18716;SDS011;9487;50.892;6.906;2023-07-20T10:49:09;3.13;;;2.40;;
18716;SDS011;9487;50.892;6.906;2023-07-20T10:51:40;2.40;;;2.17;;
18716;SDS011;9487;50.892;6.906;2023-07-20T10:54:12;3.07;;;2.23;;
18716;SDS011;9487;50.892;6.906;2023-07-20T11:00:07;3.70;;;2.30;;
18716;SDS011;9487;50.892;6.906;2023-07-20T11:02:43;3.20;;;2.20;;
18716;SDS011;9487;50.892;6.906;2023-07-20T11:08:04;2.93;;;2.33;;
18716;SDS011;9487;50.892;6.906;2023-07-20T11:10:34;3.10;;;2.47;;
18716;SDS011;9487;50.892;6.906;2023-07-20T11:13:15;3.17;;;2.00;;
18716;SDS011;9487;50.892;6.906;2023-07-20T11:15:47;3.03;;;2.20;;
18716;SDS011;9487;50.892;6.906;2023-07-20T11:18:29;2.23;;;1.90;;
18716;SDS011;9487;50.892;6.906;2023-07-20T11:20:59;3.40;;;2.40;;
18716;SDS011;9487;50.892;6.906;2023-07-20T11:23:26;3.60;;;2.30;;
18716;SDS011;9487;50.892;6.906;2023-07-20T11:25:55;2.10;;;1.83;;
18716;SDS011;9487;50.892;6.906;2023-07-20T11:28:22;3.43;;;1.97;;
18716;SDS011;9487;50.892;6.906;2023-07-20T11:30:51;3.90;;;2.27;;
18716;SDS011;9487;50.892;6.906;2023-07-20T11:33:19;2.47;;;2.10;;
18716;SDS011;9487;50.892;6.906;2023-07-20T11:35:46;4.17;;;2.30;;
18716;SDS011;9487;50.892;6.906;2023-07-20T11:38:16;2.47;;;2.00;;
18716;SDS011;9487;50.892;6.906;2023-07-20T11:40:43;2.63;;;2.00;;
18716;SDS011;9487;50.892;6.906;2023-07-20T11:43:12;1.77;;;1.40;;
18716;SDS011;9487;50.892;6.906;2023-07-20T11:45:39;2.50;;;1.40;;
18716;SDS011;9487;50.892;6.906;2023-07-20T11:48:06;1.60;;;1.50;;
18716;SDS011;9487;50.892;6.906;2023-07-20T11:50:38;3.47;;;2.00;;
18716;SDS011;9487;50.892;6.906;2023-07-20T11:53:05;1.50;;;1.40;;
18716;SDS011;9487;50.892;6.906;2023-07-20T11:55:33;2.73;;;1.73;;
18716;SDS011;9487;50.892;6.906;2023-07-20T11:58:00;1.90;;;1.80;;
18716;SDS011;9487;50.892;6.906;2023-07-20T12:00:29;3.27;;;1.90;;
18716;SDS011;9487;50.892;6.906;2023-07-20T12:02:57;2.90;;;1.80;;
18716;SDS011;9487;50.892;6.906;2023-07-20T12:05:24;1.87;;;1.47;;
18716;SDS011;9487;50.892;6.906;2023-07-20T12:07:52;2.43;;;1.80;;
18716;SDS011;9487;50.892;6.906;2023-07-20T12:10:23;2.73;;;1.70;;
18716;SDS011;9487;50.892;6.906;2023-07-20T12:12:51;2.47;;;1.87;;
18716;SDS011;9487;50.892;6.906;2023-07-20T12:15:20;2.60;;;1.63;;
18716;SDS011;9487;50.892;6.906;2023-07-20T12:17:50;1.67;;;1.57;;
18716;SDS011;9487;50.892;6.906;2023-07-20T12:20:25;1.87;;;1.57;;
18716;SDS011;9487;50.892;6.906;2023-07-20T12:22:55;2.60;;;1.73;;
18716;SDS011;9487;50.892;6.906;2023-07-20T12:25:23;3.47;;;1.77;;
18716;SDS011;9487;50.892;6.906;2023-07-20T12:28:00;1.80;;;1.70;;
18716;SDS011;9487;50.892;6.906;2023-07-20T12:30:28;2.10;;;1.90;;
18716;SDS011;9487;50.892;6.906;2023-07-20T12:32:56;1.93;;;1.73;;
18716;SDS011;9487;50.892;6.906;2023-07-20T12:35:25;3.33;;;1.70;;
18716;SDS011;9487;50.892;6.906;2023-07-20T12:37:52;3.70;;;2.07;;
18716;SDS011;9487;50.892;6.906;2023-07-20T12:40:19;2.10;;;1.77;;
18716;SDS011;9487;50.892;6.906;2023-07-20T12:42:46;2.50;;;1.80;;
18716;SDS011;9487;50.892;6.906;2023-07-20T12:45:14;4.20;;;1.60;;
18716;SDS011;9487;50.892;6.906;2023-07-20T12:47:41;3.13;;;1.90;;
18716;SDS011;9487;50.892;6.906;2023-07-20T12:50:10;5.97;;;1.67;;
18716;SDS011;9487;50.892;6.906;2023-07-20T12:52:37;3.47;;;1.80;;
18716;SDS011;9487;50.892;6.906;2023-07-20T12:55:06;3.40;;;1.80;;
18716;SDS011;9487;50.892;6.906;2023-07-20T12:57:34;2.10;;;1.50;;
18716;SDS011;9487;50.892;6.906;2023-07-20T13:00:04;3.87;;;1.73;;
18716;SDS011;9487;50.892;6.906;2023-07-20T13:02:33;4.30;;;1.50;;
18716;SDS011;9487;50.892;6.906;2023-07-20T13:05:00;2.20;;;1.50;;
18716;SDS011;9487;50.892;6.906;2023-07-20T13:07:40;2.93;;;1.60;;
18716;SDS011;9487;50.892;6.906;2023-07-20T13:10:08;3.43;;;1.53;;
18716;SDS011;9487;50.892;6.906;2023-07-20T13:12:36;1.97;;;1.73;;
18716;SDS011;9487;50.892;6.906;2023-07-20T13:15:04;2.80;;;1.70;;
18716;SDS011;9487;50.892;6.906;2023-07-20T13:17:32;2.70;;;1.50;;
18716;SDS011;9487;50.892;6.906;2023-07-20T13:20:00;1.80;;;1.50;;
18716;SDS011;9487;50.892;6.906;2023-07-20T13:22:29;2.53;;;1.60;;
18716;SDS011;9487;50.892;6.906;2023-07-20T13:24:58;1.73;;;1.33;;
18716;SDS011;9487;50.892;6.906;2023-07-20T13:27:25;3.43;;;1.40;;
18716;SDS011;9487;50.892;6.906;2023-07-20T13:29:52;3.47;;;1.67;;
18716;SDS011;9487;50.892;6.906;2023-07-20T13:32:19;2.57;;;1.30;;
18716;SDS011;9487;50.892;6.906;2023-07-20T13:34:46;3.00;;;1.63;;
18716;SDS011;9487;50.892;6.906;2023-07-20T13:37:13;1.70;;;1.60;;
18716;SDS011;9487;50.892;6.906;2023-07-20T13:39:42;2.23;;;1.60;;
18716;SDS011;9487;50.892;6.906;2023-07-20T13:42:09;4.57;;;1.87;;
18716;SDS011;9487;50.892;6.906;2023-07-20T13:44:37;4.23;;;1.87;;
18716;SDS011;9487;50.892;6.906;2023-07-20T13:47:05;5.43;;;1.80;;
18716;SDS011;9487;50.892;6.906;2023-07-20T13:49:32;4.90;;;2.00;;
18716;SDS011;9487;50.892;6.906;2023-07-20T13:51:59;3.00;;;1.87;;
18716;SDS011;9487;50.892;6.906;2023-07-20T13:54:26;9.17;;;2.60;;
18716;SDS011;9487;50.892;6.906;2023-07-20T13:56:56;3.07;;;1.80;;
18716;SDS011;9487;50.892;6.906;2023-07-20T13:59:23;2.80;;;1.87;;
18716;SDS011;9487;50.892;6.906;2023-07-20T14:01:50;5.83;;;1.50;;
18716;SDS011;9487;50.892;6.906;2023-07-20T14:04:17;2.90;;;1.43;;
18716;SDS011;9487;50.892;6.906;2023-07-20T14:06:44;2.23;;;1.40;;
18716;SDS011;9487;50.892;6.906;2023-07-20T14:09:12;3.10;;;1.80;;
18716;SDS011;9487;50.892;6.906;2023-07-20T14:11:39;1.70;;;1.40;;
18716;SDS011;9487;50.892;6.906;2023-07-20T14:14:07;1.60;;;1.40;;
18716;SDS011;9487;50.892;6.906;2023-07-20T14:16:34;2.43;;;1.70;;
18716;SDS011;9487;50.892;6.906;2023-07-20T14:19:01;2.17;;;1.70;;
18716;SDS011;9487;50.892;6.906;2023-07-20T14:21:29;2.57;;;1.80;;
18716;SDS011;9487;50.892;6.906;2023-07-20T14:23:57;2.00;;;1.40;;
18716;SDS011;9487;50.892;6.906;2023-07-20T14:26:23;2.63;;;1.70;;
18716;SDS011;9487;50.892;6.906;2023-07-20T14:28:51;3.27;;;1.60;;
18716;SDS011;9487;50.892;6.906;2023-07-20T14:31:19;1.63;;;1.53;;
18716;SDS011;9487;50.892;6.906;2023-07-20T14:33:46;2.77;;;1.50;;
18716;SDS011;9487;50.892;6.906;2023-07-20T14:36:12;2.53;;;1.67;;
18716;SDS011;9487;50.892;6.906;2023-07-20T14:38:39;3.87;;;1.57;;
18716;SDS011;9487;50.892;6.906;2023-07-20T14:41:06;2.00;;;1.40;;
18716;SDS011;9487;50.892;6.906;2023-07-20T14:43:33;2.17;;;1.43;;
18716;SDS011;9487;50.892;6.906;2023-07-20T14:46:00;1.50;;;1.40;;
18716;SDS011;9487;50.892;6.906;2023-07-20T14:48:28;1.52;;;1.33;;
18716;SDS011;9487;50.892;6.906;2023-07-20T14:50:55;1.20;;;1.10;;
18716;SDS011;9487;50.892;6.906;2023-07-20T14:53:22;2.00;;;1.33;;
18716;SDS011;9487;50.892;6.906;2023-07-20T14:55:49;1.67;;;1.30;;
18716;SDS011;9487;50.892;6.906;2023-07-20T14:58:19;1.77;;;1.40;;
18716;SDS011;9487;50.892;6.906;2023-07-20T15:00:46;1.75;;;1.30;;
18716;SDS011;9487;50.892;6.906;2023-07-20T15:03:13;1.70;;;1.60;;
18716;SDS011;9487;50.892;6.906;2023-07-20T15:05:41;1.55;;;1.42;;
18716;SDS011;9487;50.892;6.906;2023-07-20T15:08:09;2.30;;;1.48;;
18716;SDS011;9487;50.892;6.906;2023-07-20T15:10:35;2.65;;;1.27;;
18716;SDS011;9487;50.892;6.906;2023-07-20T15:13:02;1.67;;;1.50;;
18716;SDS011;9487;50.892;6.906;2023-07-20T15:15:30;3.20;;;1.40;;
18716;SDS011;9487;50.892;6.906;2023-07-20T15:17:57;2.30;;;1.40;;